createdAt,value
2022-12-23T00:00:35.311Z,92.33
2022-12-23T00:03:03.855Z,91.83
2022-12-23T00:05:37.737Z,91.63
2022-12-23T00:08:07.830Z,92.21
2022-12-23T00:10:39.322Z,92.10
2022-12-23T00:13:25.583Z,92.63
2022-12-23T00:16:03.534Z,91.83
2022-12-23T00:18:32.310Z,92.48
2022-12-23T00:21:08.108Z,92.03
2022-12-23T00:23:39.605Z,92.46
2022-12-23T00:26:08.996Z,92.81
2022-12-23T00:28:37.340Z,92.41
2022-12-23T00:31:08.908Z,92.12
2022-12-23T00:33:39.165Z,92.47
2022-12-23T00:36:14.579Z,91.85
2022-12-23T00:39:00.516Z,91.88
2022-12-23T00:41:46.187Z,92.08
2022-12-23T00:44:15.162Z,92.52
2022-12-23T00:46:44.877Z,92.35
2022-12-23T00:49:44.539Z,92.52
2022-12-23T00:52:16.883Z,92.58
2022-12-23T00:54:45.332Z,92.27
2022-12-23T00:57:13.779Z,92.55
2022-12-23T00:59:42.114Z,92.19
2022-12-23T01:02:30.922Z,92.97
2022-12-23T01:05:16.759Z,92.38
2022-12-23T01:07:45.082Z,92.36
2022-12-23T01:10:13.463Z,92.23
2022-12-23T01:12:41.726Z,91.70
2022-12-23T01:15:11.317Z,92.55
2022-12-23T01:17:41.044Z,92.23
2022-12-23T01:20:10.876Z,92.89
2022-12-23T01:22:39.235Z,92.65
2022-12-23T01:25:08.644Z,92.16
2022-12-23T01:27:37.113Z,91.97
2022-12-23T01:30:06.865Z,92.90
2022-12-23T01:32:35.242Z,92.66
2022-12-23T01:35:05.682Z,92.37
2022-12-23T01:37:33.985Z,92.77
2022-12-23T01:40:02.403Z,92.37
2022-12-23T01:42:45.031Z,92.60
2022-12-23T01:45:20.720Z,92.83
2022-12-23T01:47:56.994Z,93.42
2022-12-23T01:50:31.369Z,93.00
2022-12-23T01:53:08.110Z,92.85
2022-12-23T01:55:42.531Z,93.43
2022-12-23T01:58:14.788Z,92.92
2022-12-23T02:01:01.218Z,93.62
2022-12-23T02:03:50.849Z,93.13
2022-12-23T02:06:43.140Z,93.12
2022-12-23T02:09:19.979Z,92.74
2022-12-23T02:12:21.422Z,92.61
2022-12-23T02:15:22.622Z,93.20
2022-12-23T02:18:07.464Z,93.59
2022-12-23T02:21:07.007Z,93.19
2022-12-23T02:24:42.254Z,93.06
2022-12-23T02:27:27.822Z,93.07
2022-12-23T02:30:39.174Z,93.03
2022-12-23T02:33:39.106Z,93.92
2022-12-23T02:36:31.699Z,93.25
2022-12-23T02:39:08.299Z,93.85
2022-12-23T02:41:46.599Z,93.79
2022-12-23T02:44:28.599Z,94.15
2022-12-23T02:47:02.839Z,93.99
2022-12-23T02:49:35.555Z,93.43
2022-12-23T02:52:08.053Z,94.13
2022-12-23T02:54:43.062Z,94.36
2022-12-23T02:57:14.817Z,93.74
2022-12-23T02:59:48.570Z,94.62
2022-12-23T03:02:18.460Z,94.38
2022-12-23T03:04:47.117Z,94.16
2022-12-23T03:07:19.934Z,94.40
2022-12-23T03:09:59.764Z,94.17
2022-12-23T03:12:44.007Z,94.04
2022-12-23T03:15:26.561Z,93.66
2022-12-23T03:18:05.332Z,94.26
2022-12-23T03:20:43.875Z,93.74
2022-12-23T03:23:21.235Z,93.45
2022-12-23T03:26:00.027Z,93.60
2022-12-23T03:28:35.359Z,94.53
2022-12-23T03:31:05.468Z,94.19
2022-12-23T03:33:38.348Z,93.90
2022-12-23T03:36:14.550Z,94.18
2022-12-23T03:38:45.428Z,95.01
2022-12-23T03:41:19.433Z,94.81
2022-12-23T03:43:53.963Z,94.62
2022-12-23T03:46:35.320Z,94.80
2022-12-23T03:49:10.529Z,95.26
2022-12-23T03:51:46.010Z,94.37
2022-12-23T03:54:20.819Z,94.93
2022-12-23T03:56:56.300Z,95.26
2022-12-23T03:59:29.196Z,94.87
2022-12-23T04:02:07.923Z,95.36
2022-12-23T04:04:54.574Z,94.95
2022-12-23T04:07:27.799Z,95.45
2022-12-23T04:09:56.667Z,94.99
2022-12-23T04:12:28.505Z,95.52
2022-12-23T04:14:56.881Z,95.77
2022-12-23T04:17:25.375Z,95.33
2022-12-23T04:19:55.672Z,95.32
2022-12-23T04:22:24.211Z,94.67
2022-12-23T04:24:52.586Z,95.17
2022-12-23T04:27:20.972Z,94.92
2022-12-23T04:29:49.314Z,94.73
2022-12-23T04:32:17.662Z,95.28
2022-12-23T04:34:46.096Z,95.40
2022-12-23T04:37:15.811Z,94.90
2022-12-23T04:39:44.195Z,95.53
2022-12-23T04:42:12.538Z,95.73
2022-12-23T04:44:40.877Z,95.90
2022-12-23T04:47:09.410Z,94.69
2022-12-23T04:49:37.913Z,95.61
2022-12-23T04:52:06.541Z,94.66
2022-12-23T04:54:40.510Z,95.21
2022-12-23T04:57:12.367Z,95.11
2022-12-23T04:59:40.759Z,95.07
2022-12-23T05:02:09.733Z,95.02
2022-12-23T05:04:38.641Z,95.30
2022-12-23T05:07:07.006Z,94.88
2022-12-23T05:09:36.678Z,94.71
2022-12-23T05:12:05.432Z,95.59
2022-12-23T05:14:33.783Z,96.23
2022-12-23T05:17:07.105Z,95.40
2022-12-23T05:19:36.190Z,95.32
2022-12-23T05:22:04.527Z,95.24
2022-12-23T05:24:32.984Z,95.40
2022-12-23T05:27:02.735Z,95.74
2022-12-23T05:29:31.159Z,95.22
2022-12-23T05:31:59.555Z,95.45
2022-12-23T05:34:27.981Z,96.05
2022-12-23T05:36:56.355Z,95.84
2022-12-23T05:39:24.757Z,95.49
2022-12-23T05:41:53.067Z,95.19
2022-12-23T05:44:22.784Z,95.37
2022-12-23T05:46:51.168Z,95.43
2022-12-23T05:49:19.591Z,95.12
2022-12-23T05:51:47.898Z,95.14
2022-12-23T05:54:16.452Z,95.56
2022-12-23T05:56:44.989Z,95.69
2022-12-23T05:59:13.307Z,95.56
2022-12-23T06:01:43.107Z,95.84
2022-12-23T06:04:11.851Z,95.78
2022-12-23T06:06:40.354Z,96.15
2022-12-23T06:09:08.890Z,96.61
2022-12-23T06:11:37.160Z,95.63
2022-12-23T06:14:07.263Z,95.96
2022-12-23T06:16:35.675Z,95.87
2022-12-23T06:19:05.691Z,96.00
2022-12-23T06:21:34.445Z,96.57
2022-12-23T06:24:02.843Z,95.35
2022-12-23T06:26:31.232Z,95.32
2022-12-23T06:28:59.697Z,95.27
2022-12-23T06:31:28.097Z,96.08
2022-12-23T06:33:56.501Z,95.44
2022-12-23T06:36:26.336Z,95.81
2022-12-23T06:38:54.698Z,96.14
2022-12-23T06:41:23.009Z,96.23
2022-12-23T06:43:54.391Z,95.90
2022-12-23T06:46:23.200Z,95.62
2022-12-23T06:48:51.545Z,96.72
2022-12-23T06:51:19.987Z,95.58
2022-12-23T06:53:49.805Z,95.73
2022-12-23T06:56:18.683Z,96.29
2022-12-23T06:58:47.041Z,96.29
2022-12-23T07:01:15.427Z,96.40
2022-12-23T07:03:43.887Z,95.89
2022-12-23T07:06:12.459Z,95.94
2022-12-23T07:08:40.875Z,96.51
2022-12-23T07:11:10.633Z,96.49
2022-12-23T07:13:39.013Z,96.18
2022-12-23T07:16:10.419Z,97.04
2022-12-23T07:18:38.935Z,95.97
2022-12-23T07:21:13.995Z,96.41
2022-12-23T07:23:48.338Z,96.00
2022-12-23T07:26:18.078Z,95.71
2022-12-23T07:28:48.345Z,96.48
2022-12-23T07:31:17.053Z,96.92
2022-12-23T07:33:45.809Z,96.42
2022-12-23T07:36:14.437Z,96.83
2022-12-23T07:38:43.067Z,96.51
2022-12-23T07:41:11.390Z,96.60
2022-12-23T07:43:41.143Z,96.66
2022-12-23T07:46:10.347Z,96.19
2022-12-23T07:48:38.887Z,97.08
2022-12-23T07:51:07.421Z,96.92
2022-12-23T07:53:35.855Z,96.43
2022-12-23T07:56:04.502Z,96.31
2022-12-23T07:58:32.880Z,96.33
2022-12-23T08:01:04.756Z,96.09
2022-12-23T08:03:33.569Z,96.20
2022-12-23T08:06:03.590Z,96.23
2022-12-23T08:08:32.392Z,95.57
2022-12-23T08:11:03.043Z,96.72
2022-12-23T08:13:33.787Z,96.77
2022-12-23T08:16:05.732Z,96.54
2022-12-23T08:18:38.048Z,95.81
2022-12-23T08:21:09.108Z,96.68
2022-12-23T08:23:37.492Z,95.68
2022-12-23T08:26:09.257Z,95.96
2022-12-23T08:28:38.754Z,95.85
2022-12-23T08:31:12.181Z,96.04
2022-12-23T08:33:43.110Z,96.29
2022-12-23T08:36:20.780Z,96.52
2022-12-23T08:38:52.394Z,96.89
2022-12-23T08:41:23.762Z,95.81
2022-12-23T08:43:52.548Z,96.22
2022-12-23T08:46:22.931Z,96.09
2022-12-23T08:48:51.775Z,96.00
2022-12-23T08:51:22.480Z,96.81
2022-12-23T08:53:57.907Z,95.25
2022-12-23T08:56:32.208Z,96.10
2022-12-23T08:59:01.424Z,96.16
2022-12-23T09:01:33.999Z,95.92
2022-12-23T09:04:04.876Z,96.12
2022-12-23T09:06:37.866Z,96.12
2022-12-23T09:09:07.047Z,96.42
2022-12-23T09:11:36.041Z,95.89
2022-12-23T09:14:05.792Z,96.19
2022-12-23T09:16:35.702Z,96.38
2022-12-23T09:19:04.512Z,96.61
2022-12-23T09:21:33.054Z,96.55
2022-12-23T09:24:02.124Z,96.83
2022-12-23T09:26:32.463Z,96.30
2022-12-23T09:29:01.372Z,96.27
2022-12-23T09:31:36.195Z,95.67
2022-12-23T09:34:07.781Z,96.46
2022-12-23T09:36:36.187Z,96.12
2022-12-23T09:39:05.241Z,96.15
2022-12-23T09:41:57.124Z,95.50
2022-12-23T09:44:41.764Z,95.56
2022-12-23T09:47:15.672Z,96.08
2022-12-23T09:49:50.119Z,96.04
2022-12-23T09:52:25.116Z,96.34
2022-12-23T09:54:56.291Z,96.04
2022-12-23T09:57:32.524Z,96.05
2022-12-23T10:00:10.881Z,95.72
2022-12-23T10:02:52.599Z,95.63
2022-12-23T10:05:32.367Z,94.91
2022-12-23T10:08:08.418Z,95.30
2022-12-23T10:10:40.869Z,95.23
2022-12-23T10:13:20.444Z,95.12
2022-12-23T10:15:50.516Z,94.77
2022-12-23T10:18:29.360Z,94.73
2022-12-23T10:21:05.977Z,94.65
2022-12-23T10:23:38.862Z,94.67
2022-12-23T10:26:18.936Z,94.74
2022-12-23T10:28:47.982Z,94.50
2022-12-23T10:31:39.871Z,94.95
2022-12-23T10:34:18.480Z,94.76
2022-12-23T10:36:57.517Z,94.88
2022-12-23T10:39:34.027Z,94.96
2022-12-23T10:42:12.461Z,94.46
2022-12-23T10:45:00.172Z,94.64
2022-12-23T10:47:45.185Z,94.13
2022-12-23T10:50:46.126Z,94.03
2022-12-23T10:53:25.576Z,93.95
2022-12-23T10:55:53.924Z,94.22
2022-12-23T10:58:23.775Z,93.96
2022-12-23T11:00:57.664Z,94.43
2022-12-23T11:03:31.551Z,93.86
2022-12-23T11:06:02.595Z,93.81
2022-12-23T11:08:33.601Z,93.99
2022-12-23T11:11:02.607Z,94.62
2022-12-23T11:13:40.795Z,94.41
2022-12-23T11:16:20.613Z,94.19
2022-12-23T11:19:02.180Z,94.03
2022-12-23T11:21:34.645Z,93.81
2022-12-23T11:24:27.260Z,94.09
2022-12-23T11:27:03.373Z,94.26
2022-12-23T11:29:35.901Z,94.08
2022-12-23T11:32:17.016Z,94.07
2022-12-23T11:34:47.607Z,93.70
2022-12-23T11:37:31.509Z,93.86
2022-12-23T11:40:01.392Z,93.84
2022-12-23T11:42:31.809Z,93.86
2022-12-23T11:45:01.895Z,94.16
2022-12-23T11:47:43.218Z,93.59
2022-12-23T11:50:38.200Z,93.55
2022-12-23T11:53:15.341Z,93.80
2022-12-23T11:55:59.455Z,93.91
2022-12-23T11:58:31.347Z,93.63
2022-12-23T12:01:02.150Z,93.35
2022-12-23T12:03:35.270Z,93.40
2022-12-23T12:06:06.867Z,93.16
2022-12-23T12:08:39.078Z,92.99
2022-12-23T12:11:16.772Z,92.98
2022-12-23T12:13:49.160Z,93.12
2022-12-23T12:16:48.214Z,93.29
2022-12-23T12:19:24.873Z,93.03
2022-12-23T12:21:58.451Z,93.46
2022-12-23T12:24:33.857Z,93.52
2022-12-23T12:27:07.608Z,93.02
2022-12-23T12:29:42.951Z,93.37
2022-12-23T12:32:19.729Z,92.91
2022-12-23T12:34:54.882Z,93.20
2022-12-23T12:37:34.941Z,93.13
2022-12-23T12:40:12.747Z,93.44
2022-12-23T12:42:44.129Z,92.99
2022-12-23T12:45:19.222Z,92.89
2022-12-23T12:48:00.203Z,92.82
2022-12-23T12:50:40.877Z,93.26
2022-12-23T12:53:17.333Z,92.78
2022-12-23T12:55:52.220Z,93.24
2022-12-23T12:58:24.364Z,92.74
2022-12-23T13:01:08.421Z,93.18
2022-12-23T13:04:09.699Z,92.74
2022-12-23T13:06:45.922Z,93.28
2022-12-23T13:09:30.447Z,93.03
2022-12-23T13:12:08.089Z,92.61
2022-12-23T13:14:54.968Z,93.17
2022-12-23T13:17:28.617Z,93.00
2022-12-23T13:20:04.380Z,92.87
2022-12-23T13:22:35.190Z,93.29
2022-12-23T13:25:11.411Z,93.16
2022-12-23T13:27:47.941Z,93.07
2022-12-23T13:30:20.294Z,92.64
2022-12-23T13:33:14.338Z,93.08
2022-12-23T13:36:05.714Z,92.59
2022-12-23T13:39:02.757Z,93.34
2022-12-23T13:41:36.977Z,93.24
2022-12-23T13:44:08.669Z,93.54
2022-12-23T13:46:50.624Z,93.11
2022-12-23T13:49:32.467Z,93.22
2022-12-23T13:52:11.709Z,93.01
2022-12-23T13:54:57.065Z,93.21
2022-12-23T13:57:43.356Z,92.84
2022-12-23T14:00:30.240Z,93.21
2022-12-23T14:03:20.873Z,93.34
2022-12-23T14:05:51.063Z,93.01
2022-12-23T14:08:40.879Z,93.28
2022-12-23T14:11:17.594Z,93.50
2022-12-23T14:13:55.228Z,92.72
2022-12-23T14:16:57.199Z,93.46
2022-12-23T14:19:44.800Z,92.81
2022-12-23T14:22:49.944Z,93.59
2022-12-23T14:25:59.909Z,92.55
2022-12-23T14:28:51.185Z,93.55
2022-12-23T14:31:38.143Z,92.90
2022-12-23T14:34:26.925Z,93.27
2022-12-23T14:37:35.295Z,92.85
2022-12-23T14:40:51.019Z,92.93
2022-12-23T14:43:51.298Z,93.53
2022-12-23T14:46:57.100Z,92.97
2022-12-23T14:49:43.993Z,93.27
2022-12-23T14:53:00.320Z,92.87
2022-12-23T14:56:13.839Z,94.06
2022-12-23T14:59:09.882Z,92.97
2022-12-23T15:01:41.950Z,93.47
2022-12-23T15:04:20.053Z,93.63
2022-12-23T15:06:52.403Z,93.32
2022-12-23T15:09:27.652Z,93.96
2022-12-23T15:11:57.796Z,93.81
2022-12-23T15:14:35.403Z,94.07
2022-12-23T15:17:18.030Z,93.46
2022-12-23T15:19:48.198Z,93.63
2022-12-23T15:22:25.198Z,93.53
2022-12-23T15:24:58.159Z,93.97
2022-12-23T15:27:29.295Z,93.63
2022-12-23T15:29:59.365Z,94.09
2022-12-23T15:32:30.378Z,93.94
2022-12-23T15:35:04.373Z,94.56
2022-12-23T15:37:34.375Z,94.05
2022-12-23T15:40:12.531Z,93.39
2022-12-23T15:42:49.947Z,94.35
2022-12-23T15:45:34.873Z,93.92
2022-12-23T15:48:05.841Z,93.65
2022-12-23T15:50:41.862Z,94.53
2022-12-23T15:53:14.495Z,94.17
2022-12-23T15:55:44.784Z,94.12
2022-12-23T15:58:21.286Z,93.81
2022-12-23T16:00:55.979Z,93.99
2022-12-23T16:03:32.380Z,94.32
2022-12-23T16:06:10.620Z,93.99
2022-12-23T16:08:39.946Z,93.76
2022-12-23T16:11:16.492Z,94.77
2022-12-23T16:13:58.754Z,94.74
2022-12-23T16:16:41.854Z,94.00
2022-12-23T16:19:44.654Z,94.09
2022-12-23T16:22:25.387Z,94.60
2022-12-23T16:25:01.923Z,94.79
2022-12-23T16:27:40.619Z,94.75
2022-12-23T16:30:18.848Z,94.87
2022-12-23T16:32:52.388Z,94.76
2022-12-23T16:35:38.561Z,94.63
2022-12-23T16:38:17.813Z,94.07
2022-12-23T16:40:48.658Z,94.17
2022-12-23T16:43:20.009Z,94.47
2022-12-23T16:45:53.792Z,94.73
2022-12-23T16:48:31.044Z,94.58
2022-12-23T16:51:00.650Z,94.24
2022-12-23T16:53:29.539Z,95.05
2022-12-23T16:56:00.800Z,95.58
2022-12-23T16:58:31.254Z,94.93
2022-12-23T17:00:59.739Z,94.96
2022-12-23T17:03:28.214Z,94.67
2022-12-23T17:05:57.120Z,94.95
2022-12-23T17:08:25.690Z,95.08
2022-12-23T17:10:54.200Z,95.55
2022-12-23T17:13:22.679Z,95.93
2022-12-23T17:15:52.433Z,95.78
2022-12-23T17:18:21.348Z,95.78
2022-12-23T17:20:51.061Z,95.32
2022-12-23T17:23:29.408Z,95.50
2022-12-23T17:25:58.378Z,95.10
2022-12-23T17:28:32.294Z,95.87
2022-12-23T17:31:08.665Z,95.86
2022-12-23T17:33:41.841Z,95.88
2022-12-23T17:36:11.474Z,96.06
2022-12-23T17:38:40.400Z,95.92
2022-12-23T17:41:18.188Z,95.71
2022-12-23T17:43:46.616Z,96.47
2022-12-23T17:46:16.552Z,95.80
2022-12-23T17:48:46.952Z,96.66
2022-12-23T17:51:16.586Z,96.56
2022-12-23T17:53:45.065Z,95.92
2022-12-23T17:56:15.789Z,95.06
2022-12-23T17:58:45.761Z,95.68
2022-12-23T18:01:20.051Z,95.97
2022-12-23T18:03:48.831Z,95.71
2022-12-23T18:06:21.253Z,95.98
2022-12-23T18:08:50.480Z,95.57
2022-12-23T18:11:23.338Z,96.09
2022-12-23T18:13:54.069Z,95.97
2022-12-23T18:16:24.852Z,95.68
2022-12-23T18:18:53.302Z,95.31
2022-12-23T18:21:24.648Z,95.54
2022-12-23T18:23:54.972Z,95.93
2022-12-23T18:26:23.341Z,95.89
2022-12-23T18:28:54.107Z,95.65
2022-12-23T18:31:27.609Z,96.44
2022-12-23T18:33:56.715Z,95.49
2022-12-23T18:36:27.509Z,96.16
2022-12-23T18:38:57.381Z,96.33
2022-12-23T18:41:27.049Z,96.07
2022-12-23T18:43:56.089Z,96.47
2022-12-23T18:46:26.318Z,96.45
2022-12-23T18:48:55.028Z,96.66
2022-12-23T18:51:23.710Z,96.33
2022-12-23T18:53:52.519Z,96.78
2022-12-23T18:56:21.889Z,95.51
2022-12-23T18:58:50.952Z,96.22
2022-12-23T19:01:20.627Z,96.55
2022-12-23T19:03:50.484Z,96.91
2022-12-23T19:06:18.930Z,96.87
2022-12-23T19:08:47.372Z,95.57
2022-12-23T19:11:19.402Z,96.74
2022-12-23T19:13:48.273Z,95.98
2022-12-23T19:16:19.152Z,96.64
2022-12-23T19:18:50.685Z,95.93
2022-12-23T19:21:19.933Z,96.16
2022-12-23T19:23:48.504Z,96.58
2022-12-23T19:26:17.067Z,96.62
2022-12-23T19:28:48.259Z,96.32
2022-12-23T19:31:18.511Z,95.32
2022-12-23T19:33:49.314Z,96.03
2022-12-23T19:36:22.800Z,95.90
2022-12-23T19:38:51.632Z,96.58
2022-12-23T19:41:21.052Z,96.63
2022-12-23T19:43:49.543Z,96.55
2022-12-23T19:46:19.449Z,96.17
2022-12-23T19:48:53.516Z,96.54
2022-12-23T19:51:22.039Z,96.34
2022-12-23T19:53:53.175Z,96.42
2022-12-23T19:56:22.510Z,95.95
2022-12-23T19:58:51.685Z,95.98
2022-12-23T20:01:24.000Z,96.17
2022-12-23T20:03:56.637Z,96.62
2022-12-23T20:06:29.217Z,96.30
2022-12-23T20:09:00.942Z,96.65
2022-12-23T20:11:30.707Z,96.49
2022-12-23T20:14:00.659Z,96.39
2022-12-23T20:16:30.693Z,96.01
2022-12-23T20:19:00.554Z,97.20
2022-12-23T20:21:29.204Z,96.90
2022-12-23T20:23:58.034Z,96.50
2022-12-23T20:26:27.720Z,96.88
2022-12-23T20:28:57.300Z,96.71
2022-12-23T20:31:28.605Z,96.36
2022-12-23T20:33:59.799Z,97.08
2022-12-23T20:36:33.367Z,96.02
2022-12-23T20:39:03.600Z,96.74
2022-12-23T20:41:35.812Z,96.03
2022-12-23T20:47:01.600Z,96.49
2022-12-23T20:49:31.693Z,95.73
2022-12-23T20:52:00.134Z,97.15
2022-12-23T20:54:33.234Z,96.35
2022-12-23T20:57:03.970Z,96.72
2022-12-23T20:59:33.209Z,96.52
2022-12-23T21:02:02.900Z,97.05
2022-12-23T21:04:33.096Z,96.67
2022-12-23T21:07:01.764Z,96.64
2022-12-23T21:09:30.464Z,96.67
2022-12-23T21:11:59.415Z,96.87
2022-12-23T21:14:28.266Z,97.45
2022-12-23T21:16:56.714Z,96.63
2022-12-23T21:19:27.293Z,96.84
2022-12-23T21:21:58.159Z,97.00
2022-12-23T21:24:26.822Z,97.03
2022-12-23T21:26:57.150Z,96.49
2022-12-23T21:29:26.570Z,97.04
2022-12-23T21:31:55.521Z,95.94
2022-12-23T21:34:24.808Z,96.48
2022-12-23T21:36:53.384Z,96.64
2022-12-23T21:39:23.428Z,95.79
2022-12-23T21:41:53.835Z,96.83
2022-12-23T21:44:28.463Z,96.64
2022-12-23T21:46:58.248Z,97.09
2022-12-23T21:49:27.752Z,96.83
2022-12-23T21:51:57.760Z,96.73
2022-12-23T21:54:27.732Z,96.95
2022-12-23T21:56:56.775Z,97.00
2022-12-23T21:59:29.674Z,96.55
2022-12-23T22:02:01.655Z,96.55
2022-12-23T22:04:30.448Z,96.72
2022-12-23T22:06:59.484Z,96.31
2022-12-23T22:09:32.918Z,96.82
2022-12-23T22:12:01.734Z,96.13
2022-12-23T22:14:30.220Z,96.93
2022-12-23T22:16:59.352Z,96.40
2022-12-23T22:19:28.076Z,95.72
2022-12-23T22:21:57.080Z,96.58
2022-12-23T22:24:27.041Z,97.00
2022-12-23T22:26:57.040Z,96.66
2022-12-23T22:29:27.845Z,96.40
2022-12-23T22:31:56.782Z,96.98
2022-12-23T22:34:27.114Z,95.97
2022-12-23T22:36:55.864Z,96.93
2022-12-23T22:39:24.464Z,97.03
2022-12-23T22:41:53.730Z,96.57
2022-12-23T22:44:24.367Z,96.47
2022-12-23T22:46:53.108Z,96.73
2022-12-23T22:49:22.016Z,97.09
2022-12-23T22:51:50.509Z,97.02
2022-12-23T22:54:19.218Z,96.45
2022-12-23T22:56:50.527Z,97.17
2022-12-23T22:59:25.875Z,96.96
2022-12-23T23:01:54.906Z,96.55
2022-12-23T23:04:23.699Z,96.32
2022-12-23T23:06:52.119Z,96.89
2022-12-23T23:09:22.755Z,96.70
2022-12-23T23:11:51.751Z,96.05
2022-12-23T23:14:22.595Z,96.87
2022-12-23T23:16:51.116Z,96.95
2022-12-23T23:19:20.905Z,96.81
2022-12-23T23:21:49.889Z,96.79
2022-12-23T23:24:18.286Z,96.91
2022-12-23T23:26:46.807Z,96.64
2022-12-23T23:29:15.223Z,96.87
2022-12-23T23:31:45.308Z,96.31
2022-12-23T23:34:14.230Z,96.88
2022-12-23T23:36:42.697Z,96.10
2022-12-23T23:39:14.605Z,96.79
2022-12-23T23:41:43.413Z,97.37
2022-12-23T23:44:13.049Z,97.46
2022-12-23T23:46:41.816Z,97.43
2022-12-23T23:49:12.656Z,96.74
2022-12-23T23:51:41.654Z,96.66
2022-12-23T23:54:10.762Z,96.35
2022-12-23T23:56:39.659Z,97.10
2022-12-23T23:59:09.262Z,96.66
